The Hague, Nederland

6:11 PM CET op 17 januari 2017 (GMT +0100)
Rijnlaan | | Change Station

Hoogte 3 ft 52.18 °N, 4.44 °E | Updated 1 minute ago

Helder
Helder
28.6 °F
Voelt als 29 °F
N
0.6
Wind Variabel Wind van noord
Gusts 1.2 mijl/u

Vandaag
Hoog -- | Laag -- °F
--% Kans op neerslag
Gisteren
Hoog -- | Laag -- °F
Precip. -- inches
Druk 30.66 inches
Zicht 3.7 mijlen
Wolken
Gevoelstemperatuur 29 °F
Dauwpunt 29 °F
Vochtigheid 100%
Neerslag 0.00 inches
Dikte sneeuw Niet beschikbaar.
8:42 AM 5:03 PM
Afnemende maan, 71% visible
METAR EHRD 171655Z AUTO 07004KT 6000 NSC M04/M05 Q1038 NOSIG
Druk 30.66 inches
Zicht 3.7 mijlen
Wolken
Gevoelstemperatuur 29 °F
Dauwpunt 29 °F
Vochtigheid 100%
Neerslag 0.00 inches
Dikte sneeuw Niet beschikbaar.
8:42 AM 5:03 PM
Afnemende maan, 71% visible
METAR EHRD 171655Z AUTO 07004KT 6000 NSC M04/M05 Q1038 NOSIG

Get Your Daily Forecast Email!

Thanks for signing up!

Be on the lookout for a verification email in your inbox.

You'll start receiving the daily forecast at 8 AM.

×

10-Day Weather Forecast

×

Almanac

Astronomie

Jan. 17, 2017 Opkomst Ondergang
Werkelijke tijd
Burgerlijke schemering
Nautische schemering
Astronomische schemering
Maan
Golflengte van het zichtbare licht
Daglengte
Tomorrow will be .
, % of the Moon is Illuminated

Extremen vandaag

Country Highs Country Lows

Community

WunderPhotos

Upload Photos

1,962,540 foto’s ge-upload!

WunderBlog® & News

Nearby

Luchtkwaliteit

  Luchtkwaliteit LK-index Verontreinigende stof
Not available.

Dikte sneeuw

Station Depth Geometrische hoogte

Aardbevingen

Stad Distance Mag. Time & Date
Minimum magnitude displayed is 2.5.

Watertemperatuur langs de kust

Plaats Temperatuur

Stations

Nabije weerstations

Locatie station Temp. Gevoelstemperatuur Dauwpunt Vochtigheid Wind Precip. Hoogte Geactualiseerd Type